Time;durP1;ratioP1;P1;durP2;ratioP2;P2;SDS_P1;SDS_P2;PMS_P1;PMS_P2;Temp;Humidity;BMP_temperature;BMP_pressure;BME280_temperature;BME280_humidity;BME280_pressure;Samples;Min_cycle;Max_cycle;Signal;HPM_P1;HPM_P2
2021/04/23 00:01:12;;;;;;;75.97;46.63;;;;;;;10.37;74.20;99291.13;1740310;82;21535;-72
2021/04/23 00:03:42;;;;;;;66.62;40.05;;;;;;;10.33;74.41;99279.45;1741536;82;21124;-72
2021/04/23 00:06:23;;;;;;;54.45;34.80;;;;;;;10.30;74.42;99282.31;1746079;82;21281;-72
2021/04/23 00:08:55;;;;;;;63.50;38.90;;;;;;;10.35;74.41;99286.42;1747774;82;21560;-72
2021/04/23 00:11:31;;;;;;;62.93;37.25;;;;;;;10.40;74.29;99278.52;1720862;82;21656;-73
2021/04/23 00:13:58;;;;;;;63.25;38.08;;;;;;;10.33;74.52;99286.06;1728200;82;21301;-73
2021/04/23 00:16:26;;;;;;;61.90;35.63;;;;;;;10.27;74.83;99291.81;1738823;82;21158;-73
2021/04/23 00:18:54;;;;;;;51.05;34.27;;;;;;;10.29;74.87;99296.97;1747239;82;21500;-73
2021/04/23 00:21:22;;;;;;;52.25;34.58;;;;;;;10.43;74.65;99293.30;1743383;81;21188;-73
2021/04/23 00:23:52;;;;;;;53.38;34.98;;;;;;;10.42;74.74;99295.12;1741560;82;21156;-72
2021/04/23 00:26:19;;;;;;;49.35;32.28;;;;;;;10.34;75.01;99302.75;1726615;82;21149;-72
2021/04/23 00:28:47;;;;;;;52.53;34.73;;;;;;;10.27;75.19;99288.34;1709580;84;21307;-72
2021/04/23 00:31:16;;;;;;;55.58;35.52;;;;;;;10.33;75.16;99298.41;1728910;82;21721;-72
2021/04/23 00:33:44;;;;;;;55.30;35.43;;;;;;;10.45;74.91;99304.61;1747018;82;21178;-73
2021/04/23 00:36:14;;;;;;;55.33;35.55;;;;;;;10.11;74.89;99257.77;1734726;82;21165;-72
2021/04/23 00:38:42;;;;;;;44.15;29.27;;;;;;;10.36;75.03;99318.05;1733723;82;21555;-73
2021/04/23 00:41:15;;;;;;;40.60;29.98;;;;;;;10.36;75.07;99329.09;1743952;82;21163;-73
2021/04/23 00:43:47;;;;;;;42.80;28.77;;;;;;;10.44;74.86;99335.97;1741529;82;21124;-73
2021/04/23 00:46:14;;;;;;;46.08;29.05;;;;;;;10.36;75.03;99343.16;1735947;82;21272;-73
2021/04/23 00:48:46;;;;;;;38.20;26.37;;;;;;;10.26;75.36;99347.44;1716443;83;21575;-73
2021/04/23 00:51:26;;;;;;;38.95;27.73;;;;;;;10.29;75.25;99337.48;1704517;82;21124;-73
2021/04/23 00:53:54;;;;;;;34.78;26.10;;;;;;;10.32;75.33;99339.88;1741607;82;21631;-74
2021/04/23 00:56:25;;;;;;;36.33;25.17;;;;;;;10.24;75.49;99330.84;1726232;82;21128;-73
2021/04/23 00:58:53;;;;;;;33.40;23.98;;;;;;;10.19;75.68;99325.89;1717729;83;21233;-73
2021/04/23 01:01:34;;;;;;;32.42;23.20;;;;;;;10.31;75.44;99329.42;1679380;85;21144;-73
2021/04/23 01:04:07;;;;;;;36.25;25.48;;;;;;;10.31;75.50;99330.75;1720612;82;21119;-73
2021/04/23 01:06:37;;;;;;;35.43;25.05;;;;;;;10.20;75.82;99322.30;1746532;82;21196;-73
2021/04/23 01:09:09;;;;;;;32.33;22.75;;;;;;;10.14;76.01;99325.39;1738227;82;21187;-73
2021/04/23 01:11:37;;;;;;;32.35;22.17;;;;;;;10.20;75.86;99315.69;1742318;82;21198;-73
2021/04/23 01:14:04;;;;;;;28.38;20.70;;;;;;;10.27;75.63;99320.88;1724239;83;21174;-72
2021/04/23 01:16:31;;;;;;;26.50;19.73;;;;;;;10.23;75.67;99329.15;1709850;82;21170;-73
2021/04/23 01:18:58;;;;;;;22.70;17.40;;;;;;;10.14;75.78;99328.90;1752060;82;21687;-72
2021/04/23 01:21:30;;;;;;;19.85;15.28;;;;;;;10.11;75.85;99323.00;1749636;82;21687;-73
2021/04/23 01:24:01;;;;;;;19.45;14.35;;;;;;;10.21;75.57;99319.19;1749659;82;21175;-73
2021/04/23 01:26:33;;;;;;;18.55;13.88;;;;;;;10.22;75.46;99326.99;1749394;82;21612;-73
2021/04/23 01:29:02;;;;;;;17.87;13.55;;;;;;;10.13;75.61;99321.92;1749079;82;21757;-73
2021/04/23 01:31:31;;;;;;;17.57;12.58;;;;;;;10.06;75.79;99322.50;1747462;82;21565;-73
2021/04/23 01:34:04;;;;;;;16.30;12.88;;;;;;;10.03;75.85;99320.93;1743170;82;21203;-74
2021/04/23 01:36:32;;;;;;;15.23;12.15;;;;;;;10.12;75.58;99316.76;1751647;82;21167;-74
2021/04/23 01:39:01;;;;;;;16.05;12.35;;;;;;;10.09;75.70;99322.26;1755347;82;21579;-74
2021/04/23 01:41:28;;;;;;;15.70;12.73;;;;;;;9.97;75.91;99326.20;1755479;82;21174;-74
2021/04/23 01:43:55;;;;;;;16.05;12.82;;;;;;;9.82;76.27;99315.44;1729981;82;21155;-74
2021/04/23 01:46:22;;;;;;;16.70;13.85;;;;;;;9.83;76.26;99322.41;1717702;83;21184;-74
2021/04/23 01:48:50;;;;;;;18.35;13.60;;;;;;;9.88;76.30;99321.59;1717860;83;22333;-74
2021/04/23 01:51:18;;;;;;;18.50;13.88;;;;;;;9.80;76.54;99322.65;1717562;83;21392;-73
2021/04/23 01:53:47;;;;;;;18.35;13.45;;;;;;;9.73;76.79;99337.25;1719796;82;21618;-74
2021/04/23 01:56:16;;;;;;;15.20;12.20;;;;;;;9.74;76.88;99328.38;1753358;82;21159;-74
2021/04/23 01:58:43;;;;;;;17.95;13.55;;;;;;;9.82;76.81;99331.28;1755363;82;21240;-74
2021/04/23 02:01:11;;;;;;;19.35;14.65;;;;;;;9.74;76.99;99336.30;1749764;82;21124;-74
2021/04/23 02:03:39;;;;;;;17.70;13.10;;;;;;;9.65;77.28;99343.95;1739795;82;21181;-74
2021/04/23 02:06:08;;;;;;;14.35;11.60;;;;;;;9.69;77.30;99352.47;1747298;82;21224;-73
2021/04/23 02:08:36;;;;;;;16.80;13.75;;;;;;;9.81;77.09;99348.11;1749781;82;21282;-75
2021/04/23 02:11:13;;;;;;;19.12;13.58;;;;;;;9.84;77.16;99355.80;1749709;82;21203;-74
2021/04/23 02:13:41;;;;;;;17.65;12.88;;;;;;;9.81;77.29;99355.55;1744565;81;21176;-74
2021/04/23 02:16:09;;;;;;;14.33;11.38;;;;;;;9.82;77.33;99358.55;1749606;82;21178;-73
2021/04/23 02:18:37;;;;;;;15.38;12.00;;;;;;;9.96;77.16;99360.18;1749872;82;21208;-74
2021/04/23 02:21:07;;;;;;;12.25;8.75;;;;;;;9.87;77.00;99367.93;1739072;82;21174;-74
2021/04/23 02:23:35;;;;;;;8.43;6.60;;;;;;;9.50;72.16;99369.66;1741874;82;21172;-73
2021/04/23 02:26:02;;;;;;;10.08;6.58;;;;;;;9.01;68.58;99366.09;1750892;82;21290;-76
2021/04/23 02:28:31;;;;;;;8.25;5.67;;;;;;;8.61;69.14;99371.95;1752833;82;21659;-74
2021/04/23 02:31:11;;;;;;;10.05;6.33;;;;;;;8.29;68.57;99380.20;1750927;82;21155;-74
2021/04/23 02:33:39;;;;;;;8.25;5.90;;;;;;;8.15;69.20;99395.61;1751397;82;21350;-75
2021/04/23 02:36:06;;;;;;;8.23;5.50;;;;;;;7.94;69.92;99396.07;1726700;82;21157;-75
2021/04/23 02:38:34;;;;;;;8.80;5.47;;;;;;;7.76;70.43;99410.41;1733464;82;21205;-75
2021/04/23 02:41:01;;;;;;;10.05;5.90;;;;;;;7.69;70.70;99417.38;1746745;82;21164;-75
2021/04/23 02:43:36;;;;;;;7.33;5.10;;;;;;;7.65;70.25;99410.62;1748093;82;21171;-75
2021/04/23 02:46:04;;;;;;;10.80;5.95;;;;;;;7.50;70.40;99418.17;1755248;81;21257;-74
2021/04/23 02:48:34;;;;;;;9.60;5.75;;;;;;;7.33;71.12;99430.59;1755632;82;21175;-74
2021/04/23 02:51:09;;;;;;;7.60;5.80;;;;;;;7.33;71.28;99428.45;1755671;82;21595;-73
2021/04/23 02:53:38;;;;;;;9.33;5.80;;;;;;;7.35;70.53;99427.86;1737983;82;21129;-74
2021/04/23 02:56:06;;;;;;;9.98;5.67;;;;;;;7.19;70.43;99432.77;1724327;83;21155;-74
2021/04/23 02:58:33;;;;;;;8.75;5.70;;;;;;;7.04;70.89;99443.73;1720451;82;21181;-74
2021/04/23 03:01:04;;;;;;;10.13;5.95;;;;;;;6.99;71.29;99455.00;1740567;82;21246;-74
2021/04/23 03:03:33;;;;;;;10.28;5.60;;;;;;;7.01;71.36;99462.34;1745758;82;21107;-73
2021/04/23 03:06:00;;;;;;;9.45;5.95;;;;;;;6.92;71.81;99474.73;1749656;82;21269;-74
2021/04/23 03:08:28;;;;;;;9.10;5.62;;;;;;;6.77;72.28;99477.79;1749634;82;21163;-74
2021/04/23 03:11:00;;;;;;;7.95;5.85;;;;;;;6.80;72.09;99478.91;1749903;82;21179;-74
2021/04/23 03:13:29;;;;;;;10.30;6.58;;;;;;;6.81;71.85;99482.41;1742578;82;21145;-74
2021/04/23 03:15:56;;;;;;;9.68;5.83;;;;;;;6.70;72.33;99490.45;1724713;82;21173;-74
2021/04/23 03:18:26;;;;;;;8.98;5.60;;;;;;;6.55;71.84;99474.27;1709729;84;21218;-74
2021/04/23 03:20:55;;;;;;;8.28;6.12;;;;;;;6.60;72.18;99489.30;1709744;84;21177;-74
2021/04/23 03:23:22;;;;;;;10.72;6.00;;;;;;;6.56;73.07;99491.73;1736286;82;21187;-74
2021/04/23 03:25:50;;;;;;;7.85;5.65;;;;;;;6.47;73.74;99496.18;1744372;82;21166;-74
2021/04/23 03:28:18;;;;;;;7.37;4.95;;;;;;;6.44;73.67;99492.43;1747716;82;21119;-75
2021/04/23 03:30:48;;;;;;;10.58;5.67;;;;;;;6.44;73.25;99505.09;1747954;82;21824;-74
2021/04/23 03:33:16;;;;;;;9.70;5.55;;;;;;;6.32;73.50;99505.80;1738263;82;21117;-73
2021/04/23 03:35:50;;;;;;;10.45;5.37;;;;;;;6.22;74.07;99501.52;1738530;82;21157;-73
2021/04/23 03:38:20;;;;;;;8.10;5.40;;;;;;;6.28;73.67;99507.75;1737955;82;21334;-73
2021/04/23 03:40:49;;;;;;;7.83;5.90;;;;;;;6.26;73.38;99510.92;1717232;82;21171;-74
2021/04/23 03:43:18;;;;;;;8.00;5.00;;;;;;;6.16;73.84;99516.30;1730644;82;21741;-74
2021/04/23 03:45:45;;;;;;;7.65;4.83;;;;;;;6.09;74.25;99516.26;1740269;82;21645;-74
2021/04/23 03:48:15;;;;;;;6.90;5.15;;;;;;;6.14;74.11;99516.84;1716344;83;21207;-74
2021/04/23 03:50:43;;;;;;;6.03;4.60;;;;;;;6.07;74.05;99520.28;1742605;82;21615;-74
2021/04/23 03:53:12;;;;;;;6.42;4.60;;;;;;;5.96;74.21;99522.62;1747818;82;21199;-73
2021/04/23 03:55:43;;;;;;;8.85;4.90;;;;;;;5.96;74.56;99519.55;1747157;82;21127;-73
2021/04/23 03:58:11;;;;;;;7.47;4.90;;;;;;;5.97;74.06;99523.88;1747813;82;21135;-73
2021/04/23 04:00:45;;;;;;;6.60;4.65;;;;;;;5.86;74.10;99520.98;1747781;82;21203;-74
2021/04/23 04:03:13;;;;;;;8.13;4.80;;;;;;;5.76;74.84;99522.42;1746640;82;21317;-73
2021/04/23 04:05:40;;;;;;;9.73;5.30;;;;;;;5.74;74.83;99523.34;1730325;82;21131;-74
2021/04/23 04:08:10;;;;;;;12.88;6.45;;;;;;;5.76;74.95;99528.98;1747540;82;21190;-72
2021/04/23 04:10:38;;;;;;;11.75;7.33;;;;;;;5.66;75.35;99534.69;1747448;82;21194;-73
2021/04/23 04:13:08;;;;;;;11.53;7.17;;;;;;;5.68;75.92;99544.66;1728214;82;21621;-73
2021/04/23 04:15:35;;;;;;;7.70;5.20;;;;;;;5.79;75.93;99537.50;1747483;82;21158;-74
2021/04/23 04:18:04;;;;;;;8.73;5.20;;;;;;;5.76;76.32;99539.47;1754603;82;21699;-74
2021/04/23 04:20:33;;;;;;;6.47;5.00;;;;;;;5.69;76.74;99530.61;1752852;82;21602;-74
2021/04/23 04:23:05;;;;;;;8.60;5.33;;;;;;;5.81;76.79;99542.70;1737528;82;21582;-74
2021/04/23 04:25:36;;;;;;;8.48;5.55;;;;;;;5.91;76.43;99535.53;1748411;82;21129;-73
2021/04/23 04:28:06;;;;;;;7.53;4.92;;;;;;;5.87;76.44;99539.71;1749808;82;21309;-73
2021/04/23 04:30:35;;;;;;;8.28;5.08;;;;;;;5.83;76.66;99539.50;1742765;82;21197;-73
2021/04/23 04:33:02;;;;;;;9.30;5.53;;;;;;;5.91;76.53;99534.70;1742897;82;21193;-73
2021/04/23 04:35:30;;;;;;;8.00;5.75;;;;;;;5.95;75.86;99537.53;1744381;82;21668;-73
2021/04/23 04:37:58;;;;;;;7.65;5.83;;;;;;;5.84;76.22;99545.14;1752518;82;21135;-73
2021/04/23 04:40:28;;;;;;;7.95;5.58;;;;;;;5.77;76.85;99545.95;1733493;82;21663;-73
2021/04/23 04:42:56;;;;;;;8.58;5.62;;;;;;;5.87;76.53;99542.34;1717610;83;21201;-72
2021/04/23 04:45:26;;;;;;;10.90;6.58;;;;;;;5.85;76.48;99537.17;1747566;81;21156;-74
2021/04/23 04:47:55;;;;;;;8.83;5.20;;;;;;;5.80;76.82;99543.62;1749136;82;21229;-74
2021/04/23 04:50:34;;;;;;;8.40;5.35;;;;;;;5.87;76.57;99549.77;1748839;82;21167;-75
2021/04/23 04:53:06;;;;;;;10.72;6.62;;;;;;;6.01;76.51;99558.23;1747965;82;21161;-73
2021/04/23 04:55:39;;;;;;;9.58;6.90;;;;;;;5.99;76.68;99548.27;1747239;80;21163;-72
2021/04/23 04:58:08;;;;;;;10.28;5.72;;;;;;;5.94;76.86;99557.31;1734053;82;21620;-74
2021/04/23 05:00:38;;;;;;;9.60;5.50;;;;;;;6.01;76.24;99552.98;1749339;82;21526;-73
2021/04/23 05:03:06;;;;;;;10.65;6.15;;;;;;;6.11;75.44;99561.19;1746895;82;21145;-75
2021/04/23 05:05:34;;;;;;;9.08;6.20;;;;;;;6.08;75.51;99560.53;1729286;82;21159;-74
2021/04/23 05:08:01;;;;;;;12.55;5.90;;;;;;;6.01;75.93;99563.48;1743912;82;21636;-74
2021/04/23 05:10:34;;;;;;;9.30;5.80;;;;;;;6.09;75.80;99559.13;1743979;82;21222;-75
2021/04/23 05:13:02;;;;;;;10.03;6.55;;;;;;;6.22;75.48;99567.17;1737972;82;21311;-75
2021/04/23 05:15:32;;;;;;;10.82;5.95;;;;;;;6.20;75.31;99559.84;1696229;84;21757;-74
2021/04/23 05:17:59;;;;;;;11.48;6.40;;;;;;;6.20;75.66;99554.59;1695752;84;21301;-75
2021/04/23 05:20:27;;;;;;;10.72;6.12;;;;;;;6.30;75.51;99553.14;1699454;84;21177;-74
2021/04/23 05:22:54;;;;;;;11.97;7.67;;;;;;;6.50;75.13;99552.51;1707653;84;21241;-75
2021/04/23 05:46:53;;;;;;;7.10;5.05;;;;;;;8.75;66.61;99556.88;1748110;82;23171;-76
2021/04/23 05:49:21;;;;;;;7.67;4.75;;;;;;;8.71;66.23;99557.55;1755298;82;21190;-75
2021/04/23 05:51:48;;;;;;;9.43;5.47;;;;;;;8.44;66.35;99559.69;1754766;81;21218;-75
2021/04/23 05:54:17;;;;;;;7.75;5.15;;;;;;;8.15;66.93;99566.82;1723706;83;21295;-75
2021/04/23 05:56:45;;;;;;;12.13;5.00;;;;;;;7.87;67.25;99567.22;1723569;83;21377;-75
2021/04/23 05:59:12;;;;;;;9.43;4.70;;;;;;;7.65;67.56;99568.55;1720322;83;21576;-75
2021/04/23 06:01:45;;;;;;;7.35;4.53;;;;;;;7.53;68.11;99570.59;1713898;83;21187;-76
2021/04/23 06:04:14;;;;;;;9.25;5.08;;;;;;;7.53;67.92;99578.49;1725465;83;21608;-75
2021/04/23 06:06:42;;;;;;;8.35;5.22;;;;;;;7.67;68.38;99569.31;1745163;80;21109;-75
2021/04/23 06:09:09;;;;;;;8.40;5.85;;;;;;;7.70;68.59;99578.32;1724157;83;21182;-75
2021/04/23 06:11:36;;;;;;;10.72;6.60;;;;;;;7.74;68.95;99576.80;1728616;83;21650;-74
2021/04/23 06:14:04;;;;;;;7.22;5.03;;;;;;;7.82;69.40;99575.88;1768846;81;21653;-76
2021/04/23 06:16:32;;;;;;;8.20;4.78;;;;;;;7.95;69.62;99576.80;1778930;81;21157;-74
2021/04/23 06:19:01;;;;;;;8.83;5.10;;;;;;;8.13;68.72;99582.73;1770290;81;21110;-74
2021/04/23 06:21:33;;;;;;;10.15;5.50;;;;;;;8.09;66.34;99571.98;1727248;83;21188;-74
2021/04/23 06:24:03;;;;;;;9.05;5.35;;;;;;;8.03;67.27;99587.72;1768459;81;21111;-74
2021/04/23 06:26:31;;;;;;;9.13;5.10;;;;;;;8.02;66.32;99584.70;1755540;81;21777;-74
2021/04/23 06:29:06;;;;;;;8.70;5.42;;;;;;;8.09;66.52;99586.47;1758490;79;23118;-74
2021/04/23 06:31:35;;;;;;;11.78;5.87;;;;;;;8.09;67.39;99593.54;1732851;82;21115;-74
2021/04/23 06:34:03;;;;;;;6.72;4.83;;;;;;;8.22;68.21;99590.49;1742283;82;21730;-75
2021/04/23 06:36:32;;;;;;;10.10;5.55;;;;;;;8.40;67.42;99588.96;1751656;80;21139;-75
2021/04/23 06:38:59;;;;;;;12.85;5.60;;;;;;;8.40;67.09;99587.19;1771291;80;21297;-73
2021/04/23 06:41:26;;;;;;;8.25;5.25;;;;;;;8.42;66.85;99590.55;1702546;84;21195;-73
2021/04/23 06:43:54;;;;;;;10.10;5.90;;;;;;;8.43;67.41;99596.69;1694397;84;21182;-73
2021/04/23 06:46:22;;;;;;;9.23;5.80;;;;;;;8.48;66.90;99588.05;1713245;82;21158;-74
2021/04/23 06:48:52;;;;;;;10.72;6.72;;;;;;;8.50;66.44;99594.05;1708078;83;21190;-73
2021/04/23 06:51:19;;;;;;;10.10;5.62;;;;;;;8.65;66.40;99600.96;1702325;82;21234;-73
2021/04/23 06:53:46;;;;;;;13.50;5.75;;;;;;;8.75;65.70;99588.52;1704172;82;21186;-74
2021/04/23 06:56:14;;;;;;;10.53;5.95;;;;;;;8.69;64.72;99587.11;1709046;82;21280;-74
2021/04/23 06:58:43;;;;;;;8.40;5.65;;;;;;;8.57;65.08;99600.62;1730713;82;21161;-75
2021/04/23 07:01:11;;;;;;;9.28;6.17;;;;;;;8.49;65.34;99596.30;1673441;84;21684;-74
2021/04/23 07:03:43;;;;;;;9.88;5.90;;;;;;;8.39;65.17;99590.77;1665047;83;21212;-74
2021/04/23 07:06:11;;;;;;;9.93;5.20;;;;;;;8.33;65.52;99587.20;1667257;85;21221;-75
2021/04/23 07:08:39;;;;;;;8.90;5.58;;;;;;;8.45;67.39;99590.37;1671700;83;21189;-72
2021/04/23 07:11:06;;;;;;;11.10;5.37;;;;;;;8.83;66.23;99586.21;1650845;87;21547;-73
2021/04/23 07:13:35;;;;;;;9.35;6.08;;;;;;;9.04;66.10;99605.52;1672195;84;21170;-73
2021/04/23 07:16:03;;;;;;;9.90;5.50;;;;;;;9.11;65.40;99607.65;1660588;84;21206;-73
2021/04/23 07:18:30;;;;;;;8.88;5.75;;;;;;;9.24;65.99;99605.52;1669069;84;21176;-74
2021/04/23 07:20:58;;;;;;;6.90;4.85;;;;;;;9.39;65.53;99600.52;1704684;84;21190;-74
2021/04/23 07:23:26;;;;;;;9.33;5.47;;;;;;;9.50;64.28;99601.96;1712495;84;21162;-75
2021/04/23 07:25:53;;;;;;;8.00;4.55;;;;;;;9.54;64.65;99607.02;1697516;84;21332;-74
2021/04/23 07:28:23;;;;;;;7.40;4.70;;;;;;;9.63;64.02;99609.02;1704825;84;21234;-74
2021/04/23 07:30:50;;;;;;;8.55;4.90;;;;;;;9.67;64.22;99601.28;1694759;84;21143;-74
2021/04/23 07:33:17;;;;;;;10.03;4.58;;;;;;;9.69;62.79;99587.48;1672028;84;21244;-74
2021/04/23 07:35:47;;;;;;;8.78;4.65;;;;;;;9.81;62.38;99591.91;1659144;86;21265;-73
2021/04/23 07:38:15;;;;;;;7.53;4.70;;;;;;;9.88;62.16;99593.64;1653236;84;21195;-74
2021/04/23 07:40:44;;;;;;;9.33;5.05;;;;;;;9.89;62.67;99598.47;1652849;86;21635;-74
2021/04/23 07:43:14;;;;;;;11.20;5.95;;;;;;;9.91;62.40;99604.47;1654974;84;21183;-74
2021/04/23 07:45:45;;;;;;;6.08;4.60;;;;;;;9.89;62.49;99601.94;1684173;84;21163;-74
2021/04/23 07:48:13;;;;;;;25.30;6.67;;;;;;;9.80;62.79;99594.67;1703818;82;21154;-74
2021/04/23 07:50:44;;;;;;;9.90;4.60;;;;;;;9.72;62.30;99591.70;1715335;84;21310;-74
2021/04/23 07:53:11;;;;;;;8.50;5.28;;;;;;;9.56;61.82;99590.13;1702229;82;21155;-78
2021/04/23 07:55:42;;;;;;;10.00;5.17;;;;;;;9.42;62.45;99592.38;1692921;82;21163;-79
2021/04/23 07:58:12;;;;;;;9.73;4.75;;;;;;;9.42;63.11;99590.23;1632244;88;21217;-76
2021/04/23 08:00:40;;;;;;;7.22;4.62;;;;;;;9.63;63.16;99599.32;1666703;84;21212;-72
2021/04/23 08:03:07;;;;;;;11.20;4.42;;;;;;;9.86;62.75;99589.42;1661222;85;21304;-74
2021/04/23 08:05:34;;;;;;;9.40;4.97;;;;;;;9.87;63.05;99599.88;1663663;84;21658;-73
2021/04/23 08:08:05;;;;;;;7.10;4.55;;;;;;;9.86;62.52;99592.92;1661977;85;21273;-73
2021/04/23 08:10:35;;;;;;;10.18;5.65;;;;;;;9.75;62.14;99596.78;1676746;84;21155;-73
2021/04/23 08:13:04;;;;;;;10.63;5.00;;;;;;;9.62;62.50;99596.30;1744446;82;21770;-73
2021/04/23 08:15:37;;;;;;;8.10;4.58;;;;;;;9.62;62.81;99594.98;1713470;82;21160;-74
2021/04/23 08:18:07;;;;;;;8.50;4.95;;;;;;;9.66;62.16;99585.06;1697830;81;21160;-74
2021/04/23 08:20:36;;;;;;;7.95;4.80;;;;;;;9.67;62.14;99600.79;1682888;84;21162;-75
2021/04/23 08:23:04;;;;;;;9.05;5.33;;;;;;;9.69;62.38;99595.39;1708096;82;21143;-75
2021/04/23 08:25:33;;;;;;;7.72;4.55;;;;;;;9.90;63.04;99598.36;1685757;83;21139;-75
2021/04/23 08:28:01;;;;;;;7.60;4.30;;;;;;;10.25;62.38;99608.70;1709785;82;21219;-72
2021/04/23 08:30:30;;;;;;;8.43;4.67;;;;;;;10.41;59.72;99593.93;1715500;83;21114;-73
2021/04/23 08:32:59;;;;;;;9.65;4.28;;;;;;;10.33;60.06;99597.95;1713551;81;21193;-73
2021/04/23 08:35:28;;;;;;;6.33;4.37;;;;;;;10.36;59.85;99607.95;1731116;83;21196;-73
2021/04/23 08:37:56;;;;;;;6.58;4.28;;;;;;;10.37;59.18;99600.40;1731092;81;21189;-72
2021/04/23 08:40:25;;;;;;;7.50;4.85;;;;;;;10.41;60.25;99604.50;1733631;81;21323;-74
2021/04/23 08:42:53;;;;;;;7.45;4.67;;;;;;;10.45;58.36;99599.39;1731177;83;21173;-73
2021/04/23 08:45:22;;;;;;;6.92;4.42;;;;;;;10.48;60.17;99598.66;1729694;81;21146;-77
2021/04/23 08:47:51;;;;;;;10.43;5.28;;;;;;;10.66;60.65;99607.55;1707298;83;21648;-72
2021/04/23 08:50:22;;;;;;;8.50;4.92;;;;;;;10.88;60.86;99608.16;1711083;81;21802;-73
2021/04/23 08:52:51;;;;;;;7.45;4.60;;;;;;;11.15;59.89;99599.08;1679223;85;21178;-73
2021/04/23 08:55:23;;;;;;;7.95;5.58;;;;;;;11.28;57.81;99604.33;1677326;84;21908;-74
2021/04/23 08:57:53;;;;;;;7.55;4.58;;;;;;;11.23;57.13;99596.72;1715599;82;21333;-74
2021/04/23 09:00:20;;;;;;;9.93;6.10;;;;;;;11.21;58.01;99593.33;1677856;84;21164;-74
2021/04/23 09:02:49;;;;;;;9.13;5.40;;;;;;;11.31;58.45;99594.32;1724043;82;21337;-74
2021/04/23 09:05:20;;;;;;;9.83;5.20;;;;;;;11.43;58.41;99584.63;1663931;84;21210;-75
2021/04/23 09:08:06;;;;;;;10.08;5.60;;;;;;;11.55;57.92;99585.47;1683044;84;21357;-75
2021/04/23 09:10:37;;;;;;;11.43;5.15;;;;;;;11.71;57.75;99582.95;1705333;84;21746;-74
2021/04/23 09:13:14;;;;;;;8.00;5.00;;;;;;;11.74;56.33;99586.22;1684010;84;21194;-74
2021/04/23 09:15:43;;;;;;;7.25;4.65;;;;;;;11.77;56.42;99591.76;1703596;84;21294;-74
2021/04/23 09:18:18;;;;;;;8.60;4.67;;;;;;;11.77;54.96;99590.44;1706833;82;21600;-74
2021/04/23 09:20:49;;;;;;;7.47;4.87;;;;;;;11.76;54.81;99604.14;1656008;84;21242;-74
2021/04/23 09:23:21;;;;;;;10.13;5.42;;;;;;;11.81;54.55;99595.84;1661409;84;21145;-73
2021/04/23 09:25:54;;;;;;;9.50;4.97;;;;;;;11.74;52.87;99598.60;1669512;84;21194;-74
2021/04/23 09:28:40;;;;;;;9.10;5.30;;;;;;;11.57;52.73;99592.83;1654919;85;21676;-74
2021/04/23 09:31:32;;;;;;;7.12;4.80;;;;;;;11.52;53.25;99591.02;1671466;84;21340;-74
2021/04/23 09:34:07;;;;;;;9.80;5.60;;;;;;;11.61;54.83;99590.30;1675348;85;21206;-73
2021/04/23 09:36:46;;;;;;;7.47;5.00;;;;;;;11.81;55.60;99597.17;1669023;84;21190;-73
2021/04/23 09:39:24;;;;;;;9.75;5.20;;;;;;;11.93;51.54;99594.03;1663713;86;21154;-74
2021/04/23 09:42:02;;;;;;;9.28;5.33;;;;;;;11.85;51.55;99598.61;1655405;84;21324;-73
2021/04/23 09:44:40;;;;;;;8.35;5.12;;;;;;;11.91;53.07;99598.63;1740033;82;21199;-74
2021/04/23 09:47:18;;;;;;;7.45;5.17;;;;;;;12.12;53.55;99597.44;1666977;84;21659;-74
2021/04/23 09:50:00;;;;;;;9.25;4.87;;;;;;;12.39;53.16;99594.88;1656098;86;21781;-72
2021/04/23 09:52:29;;;;;;;6.83;4.87;;;;;;;12.62;51.66;99599.17;1681434;84;21357;-72
2021/04/23 09:55:00;;;;;;;6.87;4.50;;;;;;;12.81;49.58;99596.82;1670141;84;21174;-73
2021/04/23 09:57:34;;;;;;;7.25;4.72;;;;;;;12.84;50.54;99596.09;1662922;84;21317;-73
2021/04/23 10:00:09;;;;;;;9.80;4.95;;;;;;;13.00;50.47;99585.53;1662013;86;21191;-74
2021/04/23 10:02:36;;;;;;;7.42;3.65;;;;;;;13.20;50.56;99568.77;1665251;86;21356;-74
2021/04/23 10:05:05;;;;;;;8.83;5.70;;;;;;;13.34;46.93;99561.43;1655125;84;21584;-73
2021/04/23 10:07:34;;;;;;;11.45;6.22;;;;;;;13.37;47.00;99573.17;1700770;83;21154;-76
2021/04/23 10:10:09;;;;;;;7.33;3.95;;;;;;;13.51;47.46;99575.48;1706156;82;21108;-76
2021/04/23 10:12:50;;;;;;;8.23;3.80;;;;;;;13.66;45.14;99568.02;1695221;84;21612;-74
2021/04/23 10:15:30;;;;;;;6.28;3.80;;;;;;;13.44;44.16;99571.19;1664582;84;21176;-75
2021/04/23 10:18:07;;;;;;;5.83;3.72;;;;;;;13.41;44.63;99562.63;1666444;86;21318;-75
2021/04/23 10:20:46;;;;;;;6.62;3.70;;;;;;;13.41;44.63;99562.63;1696156;82;21211;-75
2021/04/23 10:23:17;;;;;;;5.90;3.60;;;;;;;13.41;43.02;99571.47;1696228;84;21179;-75
2021/04/23 10:25:44;;;;;;;7.30;3.50;;;;;;;13.34;43.96;99558.77;1706542;82;21171;-75
2021/04/23 10:28:16;;;;;;;7.55;3.60;;;;;;;13.18;44.39;99558.75;1658338;86;21569;-76
2021/04/23 10:30:45;;;;;;;7.78;3.77;;;;;;;13.15;43.39;99556.36;1686089;84;21739;-76
2021/04/23 10:33:15;;;;;;;5.55;3.52;;;;;;;13.11;43.79;99560.26;1711413;82;21313;-76
2021/04/23 10:35:47;;;;;;;7.58;4.10;;;;;;;13.06;44.28;99559.80;1705422;82;21196;-75
2021/04/23 10:38:17;;;;;;;6.67;4.20;;;;;;;13.01;43.70;99555.36;1724787;82;21191;-74
2021/04/23 10:41:00;;;;;;;9.63;4.00;;;;;;;12.95;45.03;99549.59;1742819;82;21598;-74
2021/04/23 10:43:30;;;;;;;9.45;4.75;;;;;;;13.06;45.99;99547.86;1701429;82;21164;-73
2021/04/23 10:46:08;;;;;;;9.95;4.35;;;;;;;13.20;46.43;99544.87;1635291;86;21914;-74
2021/04/23 10:48:38;;;;;;;8.75;5.03;;;;;;;13.34;46.66;99549.48;1665344;86;21705;-74
2021/04/23 10:51:22;;;;;;;6.25;4.20;;;;;;;13.44;46.43;99552.59;1686280;84;21602;-74
2021/04/23 10:53:52;;;;;;;6.22;4.20;;;;;;;13.47;45.72;99556.80;1732023;82;21124;-73
2021/04/23 10:56:29;;;;;;;8.95;4.20;;;;;;;13.42;45.38;99551.87;1707328;82;21199;-73
2021/04/23 10:59:06;;;;;;;7.97;4.90;;;;;;;13.29;46.25;99557.86;1728039;82;21663;-74
2021/04/23 11:01:40;;;;;;;8.78;5.00;;;;;;;13.19;46.97;99560.94;1709212;84;21333;-73
2021/04/23 11:04:12;;;;;;;8.15;5.20;;;;;;;13.17;47.77;99555.77;1729419;82;21706;-73
2021/04/23 11:06:51;;;;;;;5.83;3.98;;;;;;;13.11;48.22;99558.93;1709007;82;21183;-74
2021/04/23 11:09:23;;;;;;;6.92;4.78;;;;;;;13.07;46.72;99560.16;1691221;82;21175;-73
2021/04/23 11:12:13;;;;;;;10.05;4.62;;;;;;;12.83;48.25;99553.27;1715625;81;21595;-73
2021/04/23 11:14:42;;;;;;;7.62;4.78;;;;;;;12.82;48.30;99561.36;1682753;82;21124;-73
2021/04/23 11:17:21;;;;;;;8.35;4.10;;;;;;;12.80;48.65;99560.17;1716155;82;21225;-72
2021/04/23 11:19:53;;;;;;;8.10;4.70;;;;;;;12.78;48.63;99560.27;1709524;84;21314;-73
2021/04/23 11:22:25;;;;;;;8.15;4.70;;;;;;;12.69;49.40;99554.41;1723092;82;21135;-73
2021/04/23 11:28:07;;;;;;;9.68;4.72;;;;;;;12.89;47.28;99555.41;1778448;79;24171;-74
2021/04/23 11:31:01;;;;;;;8.08;4.37;;;;;;;12.86;48.10;99558.30;1724328;82;21232;-74
2021/04/23 11:33:47;;;;;;;10.28;5.42;;;;;;;12.98;46.93;99550.30;1736133;80;21269;-73
2021/04/23 11:36:31;;;;;;;18.70;12.33;;;;;;;13.09;46.50;99550.23;1736237;80;21178;-73
2021/04/23 11:39:12;;;;;;;8.28;5.12;;;;;;;13.12;45.97;99544.69;1733602;80;21620;-73
2021/04/23 11:42:15;;;;;;;14.33;7.15;;;;;;;13.16;45.22;99542.59;1770297;80;21155;-72
2021/04/23 11:45:09;;;;;;;8.43;5.62;;;;;;;13.13;46.03;99537.55;1723740;82;21304;-74
2021/04/23 11:47:41;;;;;;;8.55;4.80;;;;;;;13.13;46.03;99537.55;1736224;80;21174;-73
2021/04/23 11:50:31;;;;;;;6.58;4.10;;;;;;;13.12;45.75;99539.38;1689162;84;21586;-74
2021/04/23 11:53:08;;;;;;;8.60;4.75;;;;;;;13.06;45.57;99534.08;1680988;84;21155;-73
2021/04/23 11:55:39;;;;;;;8.93;4.60;;;;;;;12.95;44.52;99539.45;1654708;85;21183;-74
2021/04/23 11:58:15;;;;;;;6.45;3.85;;;;;;;12.88;46.00;99536.97;1675018;85;21621;-74
2021/04/23 12:00:51;;;;;;;8.23;4.35;;;;;;;12.73;46.14;99519.17;1672632;83;21189;-73
2021/04/23 12:03:20;;;;;;;8.98;5.28;;;;;;;12.76;46.81;99520.23;1667389;85;21197;-72
2021/04/23 12:05:55;;;;;;;8.20;5.05;;;;;;;12.76;46.81;99520.23;1674337;84;21210;-74
2021/04/23 12:11:08;;;;;;;6.20;4.25;;;;;;;12.91;46.88;99516.80;1788236;79;22968;-72
2021/04/23 12:13:40;;;;;;;6.72;4.40;;;;;;;12.81;44.82;99511.41;1764714;79;21159;-73
2021/04/23 12:16:13;;;;;;;7.72;4.87;;;;;;;12.81;44.82;99511.41;1765378;80;21127;-76
2021/04/23 12:18:51;;;;;;;9.27;4.57;;;;;;;12.76;45.79;99510.95;1776253;79;21289;-73